sensor_id;sensor_type;location;lat;lon;timestamp;pressure;altitude;pressure_sealevel;temperature;humidity
11682;BME280;5897;42.640;23.310;2023-01-28T00:00:50;93233.13;;;1.38;100.00
11682;BME280;5897;42.640;23.310;2023-01-28T00:03:17;93230.84;;;1.40;100.00
11682;BME280;5897;42.640;23.310;2023-01-28T00:05:44;93244.19;;;1.23;100.00
11682;BME280;5897;42.640;23.310;2023-01-28T00:08:11;93238.16;;;1.08;100.00
11682;BME280;5897;42.640;23.310;2023-01-28T00:10:39;93241.56;;;1.12;100.00
11682;BME280;5897;42.640;23.310;2023-01-28T00:13:09;93253.34;;;1.18;100.00
11682;BME280;5897;42.640;23.310;2023-01-28T00:15:39;93257.84;;;1.39;100.00
11682;BME280;5897;42.640;23.310;2023-01-28T00:18:06;93249.13;;;1.28;100.00
11682;BME280;5897;42.640;23.310;2023-01-28T00:20:32;93264.69;;;1.36;100.00
11682;BME280;5897;42.640;23.310;2023-01-28T00:23:00;93268.09;;;1.47;100.00
11682;BME280;5897;42.640;23.310;2023-01-28T00:25:27;93269.25;;;1.39;100.00
11682;BME280;5897;42.640;23.310;2023-01-28T00:27:54;93267.00;;;1.31;100.00
11682;BME280;5897;42.640;23.310;2023-01-28T00:30:21;93269.66;;;1.24;100.00
11682;BME280;5897;42.640;23.310;2023-01-28T00:32:49;93267.75;;;1.31;100.00
11682;BME280;5897;42.640;23.310;2023-01-28T00:35:16;93271.94;;;1.25;100.00
11682;BME280;5897;42.640;23.310;2023-01-28T00:37:44;93281.81;;;1.25;100.00
11682;BME280;5897;42.640;23.310;2023-01-28T00:40:12;93283.75;;;1.17;100.00
11682;BME280;5897;42.640;23.310;2023-01-28T00:42:39;93285.66;;;1.03;99.16
11682;BME280;5897;42.640;23.310;2023-01-28T00:45:06;93281.09;;;1.00;100.00
11682;BME280;5897;42.640;23.310;2023-01-28T00:47:33;93286.03;;;1.01;100.00
11682;BME280;5897;42.640;23.310;2023-01-28T00:50:02;93278.03;;;1.08;100.00
11682;BME280;5897;42.640;23.310;2023-01-28T00:52:29;93286.03;;;1.01;100.00
11682;BME280;5897;42.640;23.310;2023-01-28T00:54:55;93283.78;;;0.89;99.55
11682;BME280;5897;42.640;23.310;2023-01-28T00:57:22;93289.06;;;1.03;100.00
11682;BME280;5897;42.640;23.310;2023-01-28T00:59:49;93282.63;;;0.87;100.00
11682;BME280;5897;42.640;23.310;2023-01-28T01:02:16;93285.66;;;0.89;100.00
11682;BME280;5897;42.640;23.310;2023-01-28T01:04:43;93278.06;;;1.01;100.00
11682;BME280;5897;42.640;23.310;2023-01-28T01:07:21;93286.03;;;0.80;100.00
11682;BME280;5897;42.640;23.310;2023-01-28T01:09:57;93278.84;;;0.77;100.00
11682;BME280;5897;42.640;23.310;2023-01-28T01:12:24;93281.84;;;0.93;100.00
11682;BME280;5897;42.640;23.310;2023-01-28T01:14:51;93282.59;;;1.04;100.00
11682;BME280;5897;42.640;23.310;2023-01-28T01:17:18;93276.53;;;1.00;100.00
11682;BME280;5897;42.640;23.310;2023-01-28T01:19:45;93291.38;;;0.98;100.00
11682;BME280;5897;42.640;23.310;2023-01-28T01:22:12;93290.59;;;0.97;100.00
11682;BME280;5897;42.640;23.310;2023-01-28T01:24:40;93293.63;;;0.92;100.00
11682;BME280;5897;42.640;23.310;2023-01-28T01:27:07;93287.19;;;1.00;100.00
11682;BME280;5897;42.640;23.310;2023-01-28T01:29:34;93291.38;;;0.94;100.00
11682;BME280;5897;42.640;23.310;2023-01-28T01:32:01;93292.88;;;0.64;100.00
11682;BME280;5897;42.640;23.310;2023-01-28T01:34:27;93294.38;;;0.75;100.00
11682;BME280;5897;42.640;23.310;2023-01-28T01:36:54;93294.00;;;0.77;100.00
11682;BME280;5897;42.640;23.310;2023-01-28T01:39:21;93292.13;;;0.91;100.00
11682;BME280;5897;42.640;23.310;2023-01-28T01:41:49;93298.97;;;0.71;100.00
11682;BME280;5897;42.640;23.310;2023-01-28T01:47:35;93294.03;;;0.73;100.00
11682;BME280;5897;42.640;23.310;2023-01-28T01:50:08;93299.34;;;0.80;100.00
11682;BME280;5897;42.640;23.310;2023-01-28T01:52:39;93281.88;;;0.69;100.00
11682;BME280;5897;42.640;23.310;2023-01-28T01:55:11;93299.69;;;0.51;100.00
11682;BME280;5897;42.640;23.310;2023-01-28T01:57:41;93295.53;;;0.71;100.00
11682;BME280;5897;42.640;23.310;2023-01-28T02:00:09;93291.72;;;0.75;100.00
11682;BME280;5897;42.640;23.310;2023-01-28T02:02:39;93294.78;;;0.91;100.00
11682;BME280;5897;42.640;23.310;2023-01-28T02:05:08;93303.50;;;0.71;100.00
11682;BME280;5897;42.640;23.310;2023-01-28T02:07:35;93306.53;;;0.66;100.00
11682;BME280;5897;42.640;23.310;2023-01-28T02:10:03;93306.16;;;0.85;100.00
11682;BME280;5897;42.640;23.310;2023-01-28T02:12:32;93308.06;;;1.05;100.00
11682;BME280;5897;42.640;23.310;2023-01-28T02:15:04;93304.25;;;1.13;100.00
11682;BME280;5897;42.640;23.310;2023-01-28T02:17:32;93306.94;;;1.10;100.00
11682;BME280;5897;42.640;23.310;2023-01-28T02:20:00;93300.84;;;0.85;100.00
11682;BME280;5897;42.640;23.310;2023-01-28T02:22:54;93307.31;;;1.01;100.00
11682;BME280;5897;42.640;23.310;2023-01-28T02:25:40;93309.97;;;0.94;100.00
11682;BME280;5897;42.640;23.310;2023-01-28T02:28:20;93301.22;;;0.97;100.00
11682;BME280;5897;42.640;23.310;2023-01-28T02:30:52;93295.91;;;0.76;100.00
11682;BME280;5897;42.640;23.310;2023-01-28T02:33:27;93309.22;;;0.87;100.00
11682;BME280;5897;42.640;23.310;2023-01-28T02:35:57;93306.56;;;0.83;100.00
11682;BME280;5897;42.640;23.310;2023-01-28T02:38:32;93294.41;;;0.96;100.00
11682;BME280;5897;42.640;23.310;2023-01-28T02:41:04;93307.69;;;1.03;100.00
11682;BME280;5897;42.640;23.310;2023-01-28T02:43:37;93312.63;;;1.05;100.00
11682;BME280;5897;42.640;23.310;2023-01-28T02:46:14;93323.66;;;0.96;100.00
11682;BME280;5897;42.640;23.310;2023-01-28T02:49:03;93308.44;;;1.11;100.00
11682;BME280;5897;42.640;23.310;2023-01-28T02:51:56;93315.28;;;0.98;100.00
11682;BME280;5897;42.640;23.310;2023-01-28T02:54:36;93305.03;;;0.96;100.00
11682;BME280;5897;42.640;23.310;2023-01-28T02:57:10;93313.38;;;0.95;100.00
11682;BME280;5897;42.640;23.310;2023-01-28T02:59:48;93298.97;;;0.85;100.00
11682;BME280;5897;42.640;23.310;2023-01-28T03:02:21;93307.31;;;0.80;100.00
11682;BME280;5897;42.640;23.310;2023-01-28T03:04:53;93322.88;;;0.89;98.47
11682;BME280;5897;42.640;23.310;2023-01-28T03:07:23;93313.03;;;0.89;100.00
11682;BME280;5897;42.640;23.310;2023-01-28T03:09:53;93310.34;;;0.96;100.00
11682;BME280;5897;42.640;23.310;2023-01-28T03:12:25;93319.44;;;1.13;100.00
11682;BME280;5897;42.640;23.310;2023-01-28T03:15:13;93320.97;;;1.00;100.00
11682;BME280;5897;42.640;23.310;2023-01-28T03:18:01;93320.97;;;1.07;100.00
11682;BME280;5897;42.640;23.310;2023-01-28T03:20:50;93317.91;;;1.19;100.00
11682;BME280;5897;42.640;23.310;2023-01-28T03:23:40;93320.97;;;1.17;100.00
11682;BME280;5897;42.640;23.310;2023-01-28T03:26:29;93322.13;;;1.02;98.17
11682;BME280;5897;42.640;23.310;2023-01-28T03:29:17;93321.00;;;0.89;100.00
11682;BME280;5897;42.640;23.310;2023-01-28T03:32:04;93321.75;;;0.79;99.97
11682;BME280;5897;42.640;23.310;2023-01-28T03:34:48;93320.59;;;0.80;100.00
11682;BME280;5897;42.640;23.310;2023-01-28T03:37:33;93323.25;;;0.77;99.35
11682;BME280;5897;42.640;23.310;2023-01-28T03:40:02;93326.66;;;0.60;100.00
11682;BME280;5897;42.640;23.310;2023-01-28T03:42:31;93317.16;;;0.48;100.00
11682;BME280;5897;42.640;23.310;2023-01-28T03:44:58;93330.09;;;0.60;100.00
11682;BME280;5897;42.640;23.310;2023-01-28T03:47:30;93330.06;;;0.50;98.42
11682;BME280;5897;42.640;23.310;2023-01-28T03:49:57;93336.13;;;0.47;97.38
11682;BME280;5897;42.640;23.310;2023-01-28T03:52:26;93322.44;;;0.41;100.00
11682;BME280;5897;42.640;23.310;2023-01-28T03:54:54;93338.44;;;0.69;100.00
11682;BME280;5897;42.640;23.310;2023-01-28T03:57:22;93337.28;;;0.56;100.00
11682;BME280;5897;42.640;23.310;2023-01-28T03:59:49;93327.78;;;0.48;100.00
11682;BME280;5897;42.640;23.310;2023-01-28T04:02:18;93335.00;;;0.41;100.00
11682;BME280;5897;42.640;23.310;2023-01-28T04:04:47;93342.19;;;0.33;98.05
11682;BME280;5897;42.640;23.310;2023-01-28T04:07:14;93345.22;;;0.42;100.00
11682;BME280;5897;42.640;23.310;2023-01-28T04:09:42;93341.03;;;0.41;100.00
11682;BME280;5897;42.640;23.310;2023-01-28T04:12:09;93342.19;;;0.33;99.11
11682;BME280;5897;42.640;23.310;2023-01-28T04:14:36;93349.41;;;0.43;100.00
11682;BME280;5897;42.640;23.310;2023-01-28T04:17:04;93343.75;;;0.52;100.00
11682;BME280;5897;42.640;23.310;2023-01-28T04:19:31;93350.19;;;0.54;100.00
11682;BME280;5897;42.640;23.310;2023-01-28T04:22:03;93357.38;;;0.47;99.72
11682;BME280;5897;42.640;23.310;2023-01-28T04:24:31;93352.09;;;0.50;98.27
11682;BME280;5897;42.640;23.310;2023-01-28T04:26:58;93349.06;;;0.69;100.00
11682;BME280;5897;42.640;23.310;2023-01-28T04:29:25;93365.78;;;0.63;100.00
11682;BME280;5897;42.640;23.310;2023-01-28T04:31:52;93359.69;;;0.69;100.00
11682;BME280;5897;42.640;23.310;2023-01-28T04:34:19;93363.09;;;0.59;97.11
11682;BME280;5897;42.640;23.310;2023-01-28T04:36:46;93363.50;;;0.58;100.00
11682;BME280;5897;42.640;23.310;2023-01-28T04:39:14;93374.84;;;0.55;100.00
11682;BME280;5897;42.640;23.310;2023-01-28T04:41:41;93369.53;;;0.51;100.00
11682;BME280;5897;42.640;23.310;2023-01-28T04:44:08;93374.88;;;0.58;99.50
11682;BME280;5897;42.640;23.310;2023-01-28T04:46:34;93372.56;;;0.50;100.00
11682;BME280;5897;42.640;23.310;2023-01-28T04:49:01;93387.75;;;0.46;99.61
11682;BME280;5897;42.640;23.310;2023-01-28T04:51:28;93386.97;;;0.31;98.45
11682;BME280;5897;42.640;23.310;2023-01-28T04:53:55;93378.66;;;0.43;100.00
11682;BME280;5897;42.640;23.310;2023-01-28T04:56:23;93384.69;;;0.40;100.00
11682;BME280;5897;42.640;23.310;2023-01-28T04:58:50;93383.19;;;0.39;100.00
11682;BME280;5897;42.640;23.310;2023-01-28T05:01:17;93390.78;;;0.37;100.00
11682;BME280;5897;42.640;23.310;2023-01-28T05:03:44;93391.84;;;0.22;99.93
11682;BME280;5897;42.640;23.310;2023-01-28T05:06:10;93389.56;;;0.24;99.72
11682;BME280;5897;42.640;23.310;2023-01-28T05:08:37;93391.44;;;0.17;100.00
11682;BME280;5897;42.640;23.310;2023-01-28T05:11:04;93402.03;;;0.06;100.00
11682;BME280;5897;42.640;23.310;2023-01-28T05:13:32;93406.97;;;0.11;100.00
11682;BME280;5897;42.640;23.310;2023-01-28T05:15:59;93416.88;;;0.14;100.00
11682;BME280;5897;42.640;23.310;2023-01-28T05:18:26;93411.91;;;0.13;100.00
11682;BME280;5897;42.640;23.310;2023-01-28T05:20:53;93411.13;;;0.05;100.00
11682;BME280;5897;42.640;23.310;2023-01-28T05:23:19;93414.94;;;0.11;100.00
11682;BME280;5897;42.640;23.310;2023-01-28T05:25:46;93411.84;;;0.02;100.00
11682;BME280;5897;42.640;23.310;2023-01-28T05:28:13;93414.91;;;0.04;99.83
11682;BME280;5897;42.640;23.310;2023-01-28T05:30:41;93417.97;;;0.13;99.79
11682;BME280;5897;42.640;23.310;2023-01-28T05:33:08;93427.06;;;0.09;99.52
11682;BME280;5897;42.640;23.310;2023-01-28T05:35:35;93424.03;;;0.03;99.77
11682;BME280;5897;42.640;23.310;2023-01-28T05:38:02;93429.31;;;0.03;98.42
11682;BME280;5897;42.640;23.310;2023-01-28T05:40:29;93424.38;;;-0.02;99.70
11682;BME280;5897;42.640;23.310;2023-01-28T05:42:56;93430.00;;;-0.10;100.00
11682;BME280;5897;42.640;23.310;2023-01-28T05:45:22;93423.22;;;-0.01;100.00
11682;BME280;5897;42.640;23.310;2023-01-28T05:47:50;93431.59;;;0.05;100.00
11682;BME280;5897;42.640;23.310;2023-01-28T05:50:17;93428.22;;;0.15;99.60
11682;BME280;5897;42.640;23.310;2023-01-28T05:52:44;93427.09;;;0.12;99.66
11682;BME280;5897;42.640;23.310;2023-01-28T05:55:11;93424.41;;;0.09;99.02
11682;BME280;5897;42.640;23.310;2023-01-28T05:57:38;93433.88;;;0.06;98.82
11682;BME280;5897;42.640;23.310;2023-01-28T06:00:06;93435.03;;;0.12;98.13
11682;BME280;5897;42.640;23.310;2023-01-28T06:02:32;93432.75;;;0.07;98.66
11682;BME280;5897;42.640;23.310;2023-01-28T06:05:01;93443.38;;;0.07;98.81
11682;BME280;5897;42.640;23.310;2023-01-28T06:07:27;93448.28;;;0.02;99.20
11682;BME280;5897;42.640;23.310;2023-01-28T06:09:54;93450.94;;;0.05;99.28
11682;BME280;5897;42.640;23.310;2023-01-28T06:12:22;93451.69;;;0.02;98.89
11682;BME280;5897;42.640;23.310;2023-01-28T06:14:48;93458.09;;;-0.06;99.89
11682;BME280;5897;42.640;23.310;2023-01-28T06:17:15;93457.00;;;0.02;100.00
11682;BME280;5897;42.640;23.310;2023-01-28T06:19:42;93465.69;;;-0.04;100.00
11682;BME280;5897;42.640;23.310;2023-01-28T06:22:10;93473.63;;;-0.11;100.00
11682;BME280;5897;42.640;23.310;2023-01-28T06:24:37;93472.16;;;-0.02;100.00
11682;BME280;5897;42.640;23.310;2023-01-28T06:27:04;93471.06;;;0.10;100.00
11682;BME280;5897;42.640;23.310;2023-01-28T06:29:31;93474.06;;;0.05;100.00
11682;BME280;5897;42.640;23.310;2023-01-28T06:31:57;93478.31;;;0.16;100.00
11682;BME280;5897;42.640;23.310;2023-01-28T06:34:24;93488.53;;;0.11;100.00
11682;BME280;5897;42.640;23.310;2023-01-28T06:36:51;93486.69;;;0.18;100.00
11682;BME280;5897;42.640;23.310;2023-01-28T06:39:20;93472.56;;;0.04;99.38
11682;BME280;5897;42.640;23.310;2023-01-28T06:41:47;93492.34;;;0.13;99.66
11682;BME280;5897;42.640;23.310;2023-01-28T06:44:14;93495.00;;;0.17;100.00
11682;BME280;5897;42.640;23.310;2023-01-28T06:46:41;93497.75;;;0.27;100.00
11682;BME280;5897;42.640;23.310;2023-01-28T06:49:07;93497.72;;;0.24;99.23
11682;BME280;5897;42.640;23.310;2023-01-28T06:51:34;93504.94;;;0.27;99.62
11682;BME280;5897;42.640;23.310;2023-01-28T06:54:01;93514.00;;;0.15;99.31
11682;BME280;5897;42.640;23.310;2023-01-28T06:56:29;93517.38;;;0.16;99.43
11682;BME280;5897;42.640;23.310;2023-01-28T06:58:56;93514.75;;;0.19;99.47
11682;BME280;5897;42.640;23.310;2023-01-28T07:01:23;93526.50;;;0.15;100.00
11682;BME280;5897;42.640;23.310;2023-01-28T07:03:50;93516.94;;;0.03;100.00
11682;BME280;5897;42.640;23.310;2023-01-28T07:06:16;93526.44;;;0.04;100.00
11682;BME280;5897;42.640;23.310;2023-01-28T07:08:43;93531.75;;;0.08;100.00
11682;BME280;5897;42.640;23.310;2023-01-28T07:11:10;93527.28;;;0.19;100.00
11682;BME280;5897;42.640;23.310;2023-01-28T07:13:38;93534.44;;;0.11;100.00
11682;BME280;5897;42.640;23.310;2023-01-28T07:16:06;93546.25;;;0.17;100.00
11682;BME280;5897;42.640;23.310;2023-01-28T07:18:33;93540.88;;;0.10;100.00
11682;BME280;5897;42.640;23.310;2023-01-28T07:21:00;93548.50;;;0.15;99.97
11682;BME280;5897;42.640;23.310;2023-01-28T07:23:27;93554.47;;;-0.02;100.00
11682;BME280;5897;42.640;23.310;2023-01-28T07:25:54;93557.44;;;-0.10;100.00
11682;BME280;5897;42.640;23.310;2023-01-28T07:28:20;93554.31;;;-0.19;100.00
11682;BME280;5897;42.640;23.310;2023-01-28T07:30:49;93561.97;;;-0.11;100.00
11682;BME280;5897;42.640;23.310;2023-01-28T07:33:16;93557.50;;;0.00;100.00
11682;BME280;5897;42.640;23.310;2023-01-28T07:35:44;93563.97;;;0.03;100.00
11682;BME280;5897;42.640;23.310;2023-01-28T07:38:11;93563.34;;;0.23;100.00
11682;BME280;5897;42.640;23.310;2023-01-28T07:40:38;93567.09;;;0.15;100.00
11682;BME280;5897;42.640;23.310;2023-01-28T07:43:07;93569.00;;;0.18;100.00
11682;BME280;5897;42.640;23.310;2023-01-28T07:45:35;93567.53;;;0.24;100.00
11682;BME280;5897;42.640;23.310;2023-01-28T07:48:05;93572.75;;;0.10;100.00
11682;BME280;5897;42.640;23.310;2023-01-28T07:50:35;93570.50;;;0.12;100.00
11682;BME280;5897;42.640;23.310;2023-01-28T07:53:03;93574.34;;;0.22;100.00
11682;BME280;5897;42.640;23.310;2023-01-28T07:55:30;93573.66;;;0.35;99.63
11682;BME280;5897;42.640;23.310;2023-01-28T07:58:00;93576.28;;;0.28;98.69
11682;BME280;5897;42.640;23.310;2023-01-28T08:00:29;93571.47;;;0.44;99.17
11682;BME280;5897;42.640;23.310;2023-01-28T08:02:58;93594.19;;;0.35;98.76
11682;BME280;5897;42.640;23.310;2023-01-28T08:05:31;93553.50;;;0.24;99.33
11682;BME280;5897;42.640;23.310;2023-01-28T08:08:03;93581.34;;;0.47;99.12
11682;BME280;5897;42.640;23.310;2023-01-28T08:10:30;93581.34;;;0.47;97.44
11682;BME280;5897;42.640;23.310;2023-01-28T08:12:57;93586.34;;;0.59;95.76
11682;BME280;5897;42.640;23.310;2023-01-28T08:15:24;93587.53;;;0.65;97.13
11682;BME280;5897;42.640;23.310;2023-01-28T08:17:53;93574.16;;;0.55;96.94
11682;BME280;5897;42.640;23.310;2023-01-28T08:20:20;93582.63;;;0.74;96.42
11682;BME280;5897;42.640;23.310;2023-01-28T08:22:48;93579.25;;;0.81;96.55
11682;BME280;5897;42.640;23.310;2023-01-28T08:25:15;93587.59;;;0.83;95.39
11682;BME280;5897;42.640;23.310;2023-01-28T08:27:42;93585.31;;;0.81;94.30
11682;BME280;5897;42.640;23.310;2023-01-28T08:30:10;93597.88;;;0.88;94.81
11682;BME280;5897;42.640;23.310;2023-01-28T08:32:37;93595.25;;;0.98;95.36
11682;BME280;5897;42.640;23.310;2023-01-28T08:35:04;93596.78;;;0.96;95.48
11682;BME280;5897;42.640;23.310;2023-01-28T08:37:32;93592.22;;;0.96;94.13
11682;BME280;5897;42.640;23.310;2023-01-28T08:40:00;93590.69;;;0.92;96.83
11682;BME280;5897;42.640;23.310;2023-01-28T08:42:27;93589.97;;;1.02;95.08
11682;BME280;5897;42.640;23.310;2023-01-28T08:44:53;93596.38;;;0.90;95.00
11682;BME280;5897;42.640;23.310;2023-01-28T08:47:20;93593.78;;;1.08;94.27
11682;BME280;5897;42.640;23.310;2023-01-28T08:49:47;93593.81;;;1.11;94.24
11682;BME280;5897;42.640;23.310;2023-01-28T08:52:14;93589.69;;;1.28;93.13
11682;BME280;5897;42.640;23.310;2023-01-28T08:54:40;93588.91;;;1.24;93.54
11682;BME280;5897;42.640;23.310;2023-01-28T08:57:09;93590.84;;;1.34;93.99
11682;BME280;5897;42.640;23.310;2023-01-28T08:59:35;93600.00;;;1.47;93.93
11682;BME280;5897;42.640;23.310;2023-01-28T09:02:05;93585.22;;;1.56;93.13
11682;BME280;5897;42.640;23.310;2023-01-28T09:04:32;93600.06;;;1.78;91.55
11682;BME280;5897;42.640;23.310;2023-01-28T09:06:58;93593.25;;;1.98;90.09
11682;BME280;5897;42.640;23.310;2023-01-28T09:09:26;93595.91;;;2.05;89.71
11682;BME280;5897;42.640;23.310;2023-01-28T09:11:53;93598.94;;;2.21;88.99
11682;BME280;5897;42.640;23.310;2023-01-28T09:14:21;93593.25;;;2.23;88.79
11682;BME280;5897;42.640;23.310;2023-01-28T09:16:48;93602.00;;;2.09;88.52
11682;BME280;5897;42.640;23.310;2023-01-28T09:19:15;93603.13;;;2.12;89.07
11682;BME280;5897;42.640;23.310;2023-01-28T09:21:41;93599.72;;;2.01;89.85
11682;BME280;5897;42.640;23.310;2023-01-28T09:24:09;93605.78;;;1.98;90.21
11682;BME280;5897;42.640;23.310;2023-01-28T09:26:36;93606.19;;;2.10;90.42
11682;BME280;5897;42.640;23.310;2023-01-28T09:29:03;93599.72;;;2.01;89.07
11682;BME280;5897;42.640;23.310;2023-01-28T09:31:31;93604.66;;;2.09;89.65
11682;BME280;5897;42.640;23.310;2023-01-28T09:33:58;93594.38;;;2.04;90.71
11682;BME280;5897;42.640;23.310;2023-01-28T09:36:25;93600.09;;;1.92;88.59
11682;BME280;5897;42.640;23.310;2023-01-28T09:38:51;93598.53;;;1.74;89.86
11682;BME280;5897;42.640;23.310;2023-01-28T09:41:26;93602.34;;;1.76;91.38
11682;BME280;5897;42.640;23.310;2023-01-28T09:44:03;93596.66;;;1.74;90.25
11682;BME280;5897;42.640;23.310;2023-01-28T09:46:34;93590.13;;;1.61;91.55
11682;BME280;5897;42.640;23.310;2023-01-28T09:49:05;93599.31;;;1.85;91.90
11682;BME280;5897;42.640;23.310;2023-01-28T09:51:39;93588.66;;;1.74;91.96
11682;BME280;5897;42.640;23.310;2023-01-28T09:54:16;93597.75;;;1.66;90.97
11682;BME280;5897;42.640;23.310;2023-01-28T09:56:47;93589.75;;;1.63;91.97
11682;BME280;5897;42.640;23.310;2023-01-28T09:59:20;93596.66;;;1.74;91.60
11682;BME280;5897;42.640;23.310;2023-01-28T10:01:54;93593.56;;;1.72;92.80
11682;BME280;5897;42.640;23.310;2023-01-28T10:04:38;93595.50;;;1.75;90.96
11682;BME280;5897;42.640;23.310;2023-01-28T10:07:21;93598.16;;;1.68;91.56
11682;BME280;5897;42.640;23.310;2023-01-28T10:09:56;93593.19;;;1.63;92.29
11682;BME280;5897;42.640;23.310;2023-01-28T10:12:36;93587.09;;;1.52;92.30
11682;BME280;5897;42.640;23.310;2023-01-28T10:15:28;93590.53;;;1.70;93.05
11682;BME280;5897;42.640;23.310;2023-01-28T10:18:00;93587.88;;;1.74;91.59
11682;BME280;5897;42.640;23.310;2023-01-28T10:20:31;93587.44;;;1.44;93.11
11682;BME280;5897;42.640;23.310;2023-01-28T10:23:04;93585.53;;;1.44;94.24
11682;BME280;5897;42.640;23.310;2023-01-28T10:25:33;93587.09;;;1.52;94.37
11682;BME280;5897;42.640;23.310;2023-01-28T10:28:01;93587.09;;;1.45;94.54
11682;BME280;5897;42.640;23.310;2023-01-28T10:30:30;93589.38;;;1.57;94.59
11682;BME280;5897;42.640;23.310;2023-01-28T10:33:03;93589.38;;;1.64;94.58
11682;BME280;5897;42.640;23.310;2023-01-28T10:35:34;93594.31;;;1.52;94.59
11682;BME280;5897;42.640;23.310;2023-01-28T10:38:06;93594.28;;;1.48;96.01
11682;BME280;5897;42.640;23.310;2023-01-28T10:40:34;93596.59;;;1.57;96.33
11682;BME280;5897;42.640;23.310;2023-01-28T10:43:01;93584.81;;;1.58;95.23
11682;BME280;5897;42.640;23.310;2023-01-28T10:45:31;93587.88;;;1.63;93.99
11682;BME280;5897;42.640;23.310;2023-01-28T10:48:06;93604.50;;;1.32;93.84
11682;BME280;5897;42.640;23.310;2023-01-28T10:50:34;93579.06;;;1.38;95.81
11682;BME280;5897;42.640;23.310;2023-01-28T10:53:03;93581.00;;;1.55;96.82
11682;BME280;5897;42.640;23.310;2023-01-28T10:55:34;93581.00;;;1.55;96.03
11682;BME280;5897;42.640;23.310;2023-01-28T10:58:04;93579.53;;;1.68;95.05
11682;BME280;5897;42.640;23.310;2023-01-28T11:00:34;93583.28;;;1.67;93.77
11682;BME280;5897;42.640;23.310;2023-01-28T11:03:03;93575.72;;;1.69;94.63
11682;BME280;5897;42.640;23.310;2023-01-28T11:05:30;93580.25;;;1.65;95.32
11682;BME280;5897;42.640;23.310;2023-01-28T11:08:12;93584.88;;;2.00;100.00
11682;BME280;5897;42.640;23.310;2023-01-28T11:10:39;93574.19;;;2.38;100.00
11682;BME280;5897;42.640;23.310;2023-01-28T11:13:15;93580.94;;;2.78;100.00
11682;BME280;5897;42.640;23.310;2023-01-28T11:15:46;93580.69;;;2.34;99.26
11682;BME280;5897;42.640;23.310;2023-01-28T11:18:17;93579.50;;;2.45;100.00
11682;BME280;5897;42.640;23.310;2023-01-28T11:20:51;93579.88;;;2.44;96.78
11682;BME280;5897;42.640;23.310;2023-01-28T11:23:22;93563.13;;;2.47;100.00
11682;BME280;5897;42.640;23.310;2023-01-28T11:25:59;93584.41;;;2.61;95.29
11682;BME280;5897;42.640;23.310;2023-01-28T11:28:27;93574.97;;;2.39;94.62
11682;BME280;5897;42.640;23.310;2023-01-28T11:30:55;93577.59;;;2.32;94.95
11682;BME280;5897;42.640;23.310;2023-01-28T11:33:30;93575.69;;;2.39;99.49
11682;BME280;5897;42.640;23.310;2023-01-28T11:36:05;93580.66;;;2.44;99.53
11682;BME280;5897;42.640;23.310;2023-01-28T11:38:32;93577.22;;;2.47;100.00
11682;BME280;5897;42.640;23.310;2023-01-28T11:40:59;93580.63;;;2.51;100.00
11682;BME280;5897;42.640;23.310;2023-01-28T11:43:27;93573.38;;;2.66;100.00
11682;BME280;5897;42.640;23.310;2023-01-28T11:46:03;93575.28;;;2.72;97.47
11682;BME280;5897;42.640;23.310;2023-01-28T11:48:41;93572.16;;;2.88;96.04
11682;BME280;5897;42.640;23.310;2023-01-28T11:51:23;93564.09;;;3.09;96.04
11682;BME280;5897;42.640;23.310;2023-01-28T11:54:03;93571.78;;;2.89;90.99
11682;BME280;5897;42.640;23.310;2023-01-28T11:56:53;93569.09;;;2.93;90.96
11682;BME280;5897;42.640;23.310;2023-01-28T11:59:40;93573.34;;;2.69;87.54
11682;BME280;5897;42.640;23.310;2023-01-28T12:02:30;93574.16;;;2.59;85.83
11682;BME280;5897;42.640;23.310;2023-01-28T12:05:16;93575.69;;;2.46;85.53
11682;BME280;5897;42.640;23.310;2023-01-28T12:07:51;93577.22;;;2.33;86.18
11682;BME280;5897;42.640;23.310;2023-01-28T12:10:25;93574.97;;;2.18;86.73
11682;BME280;5897;42.640;23.310;2023-01-28T12:13:15;93582.56;;;2.26;87.28
11682;BME280;5897;42.640;23.310;2023-01-28T12:16:03;93584.09;;;2.06;87.22
11682;BME280;5897;42.640;23.310;2023-01-28T12:19:09;93588.66;;;1.95;87.23
11682;BME280;5897;42.640;23.310;2023-01-28T12:21:52;93581.03;;;1.87;88.03
11682;BME280;5897;42.640;23.310;2023-01-28T12:24:32;93587.13;;;1.98;89.56
11682;BME280;5897;42.640;23.310;2023-01-28T12:27:09;93575.72;;;1.97;87.60
11682;BME280;5897;42.640;23.310;2023-01-28T12:29:43;93581.44;;;1.89;88.55
11682;BME280;5897;42.640;23.310;2023-01-28T12:32:28;93574.97;;;1.86;88.48
11682;BME280;5897;42.640;23.310;2023-01-28T12:35:20;93581.41;;;1.78;88.36
11682;BME280;5897;42.640;23.310;2023-01-28T12:37:58;93588.28;;;1.93;89.17
11682;BME280;5897;42.640;23.310;2023-01-28T12:40:48;93581.81;;;2.08;89.83
11682;BME280;5897;42.640;23.310;2023-01-28T12:43:21;93589.44;;;2.20;87.21
11682;BME280;5897;42.640;23.310;2023-01-28T12:45:53;93592.09;;;2.17;87.56
11682;BME280;5897;42.640;23.310;2023-01-28T12:48:26;93601.22;;;2.05;87.93
11682;BME280;5897;42.640;23.310;2023-01-28T12:50:59;93597.03;;;1.94;87.95
11682;BME280;5897;42.640;23.310;2023-01-28T12:53:32;93606.19;;;1.96;86.83
11682;BME280;5897;42.640;23.310;2023-01-28T12:56:05;93604.63;;;1.95;88.70
11682;BME280;5897;42.640;23.310;2023-01-28T12:58:39;93608.84;;;1.96;88.45
11682;BME280;5897;42.640;23.310;2023-01-28T13:01:12;93604.25;;;1.83;89.63
11682;BME280;5897;42.640;23.310;2023-01-28T13:03:47;93601.97;;;1.99;93.29
11682;BME280;5897;42.640;23.310;2023-01-28T13:06:23;93601.59;;;2.00;92.85
11682;BME280;5897;42.640;23.310;2023-01-28T13:08:55;93603.53;;;2.28;98.33
11682;BME280;5897;42.640;23.310;2023-01-28T13:11:32;93608.44;;;2.57;100.00
11682;BME280;5897;42.640;23.310;2023-01-28T13:14:00;93604.63;;;2.62;100.00
11682;BME280;5897;42.640;23.310;2023-01-28T13:16:28;93614.50;;;2.75;100.00
11682;BME280;5897;42.640;23.310;2023-01-28T13:19:04;93613.72;;;2.85;95.13
11682;BME280;5897;42.640;23.310;2023-01-28T13:21:35;93610.63;;;3.04;99.26
11682;BME280;5897;42.640;23.310;2023-01-28T13:24:16;93619.75;;;3.07;97.36
11682;BME280;5897;42.640;23.310;2023-01-28T13:26:46;93617.09;;;3.10;95.12